sensor_id;sensor_type;location;lat;lon;timestamp;pressure;altitude;pressure_sealevel;temperature;humidity
51460;BME280;37534;39.772;2.718;2023-03-31T00:00:42;101469.97;;;16.13;69.44
51460;BME280;37534;39.772;2.718;2023-03-31T00:03:08;101467.81;;;16.01;69.28
51460;BME280;37534;39.772;2.718;2023-03-31T00:05:38;101477.53;;;15.96;72.54
51460;BME280;37534;39.772;2.718;2023-03-31T00:08:04;101477.50;;;15.98;73.42
51460;BME280;37534;39.772;2.718;2023-03-31T00:10:32;101460.56;;;15.86;72.67
51460;BME280;37534;39.772;2.718;2023-03-31T00:12:59;101463.66;;;15.70;72.84
51460;BME280;37534;39.772;2.718;2023-03-31T00:15:25;101468.00;;;15.95;65.81
51460;BME280;37534;39.772;2.718;2023-03-31T00:17:51;101462.88;;;15.93;66.66
51460;BME280;37534;39.772;2.718;2023-03-31T00:20:17;101457.41;;;16.01;63.97
51460;BME280;37534;39.772;2.718;2023-03-31T00:22:42;101462.59;;;16.01;68.11
51460;BME280;37534;39.772;2.718;2023-03-31T00:25:12;101445.06;;;16.06;66.90
51460;BME280;37534;39.772;2.718;2023-03-31T00:27:43;101447.38;;;16.36;59.63
51460;BME280;37534;39.772;2.718;2023-03-31T00:30:11;101458.06;;;16.30;63.82
51460;BME280;37534;39.772;2.718;2023-03-31T00:32:37;101427.53;;;16.11;67.34
51460;BME280;37534;39.772;2.718;2023-03-31T00:35:03;101449.50;;;16.04;67.70
51460;BME280;37534;39.772;2.718;2023-03-31T00:37:29;101410.56;;;16.01;66.21
51460;BME280;37534;39.772;2.718;2023-03-31T00:39:55;101428.94;;;15.96;67.81
51460;BME280;37534;39.772;2.718;2023-03-31T00:42:21;101425.78;;;15.88;69.36
51460;BME280;37534;39.772;2.718;2023-03-31T00:45:29;101433.97;;;15.77;69.74
51460;BME280;37534;39.772;2.718;2023-03-31T00:48:14;101422.97;;;15.69;71.01
51460;BME280;37534;39.772;2.718;2023-03-31T00:51:03;101424.22;;;15.57;73.29
51460;BME280;37534;39.772;2.718;2023-03-31T00:53:31;101414.31;;;15.69;69.70
51460;BME280;37534;39.772;2.718;2023-03-31T00:56:08;101410.44;;;15.55;70.16
51460;BME280;37534;39.772;2.718;2023-03-31T00:58:36;101412.41;;;15.49;70.88
51460;BME280;37534;39.772;2.718;2023-03-31T01:01:10;101411.47;;;15.51;70.96
51460;BME280;37534;39.772;2.718;2023-03-31T01:03:40;101391.84;;;15.66;67.94
51460;BME280;37534;39.772;2.718;2023-03-31T01:06:06;101406.72;;;15.63;69.08
51460;BME280;37534;39.772;2.718;2023-03-31T01:08:35;101411.13;;;15.61;69.77
51460;BME280;37534;39.772;2.718;2023-03-31T01:11:09;101387.53;;;15.42;70.30
51460;BME280;37534;39.772;2.718;2023-03-31T01:13:38;101407.19;;;15.49;69.60
51460;BME280;37534;39.772;2.718;2023-03-31T01:16:04;101407.84;;;15.30;70.57
51460;BME280;37534;39.772;2.718;2023-03-31T01:18:30;101404.94;;;15.63;66.90
51460;BME280;37534;39.772;2.718;2023-03-31T01:21:14;101416.75;;;15.48;69.40
51460;BME280;37534;39.772;2.718;2023-03-31T01:42:51;101411.09;;;16.09;62.47
51460;BME280;37534;39.772;2.718;2023-03-31T01:45:35;101394.31;;;16.16;59.26
51460;BME280;37534;39.772;2.718;2023-03-31T01:48:14;101394.19;;;15.98;60.82
51460;BME280;37534;39.772;2.718;2023-03-31T01:50:55;101388.09;;;15.75;63.32
51460;BME280;37534;39.772;2.718;2023-03-31T01:53:28;101371.91;;;15.90;62.09
51460;BME280;37534;39.772;2.718;2023-03-31T01:56:03;101375.59;;;15.85;57.30
51460;BME280;37534;39.772;2.718;2023-03-31T01:58:37;101356.53;;;15.84;58.89
51460;BME280;37534;39.772;2.718;2023-03-31T02:01:14;101369.91;;;15.73;61.15
51460;BME280;37534;39.772;2.718;2023-03-31T02:06:57;101373.13;;;15.56;63.89
51460;BME280;37534;39.772;2.718;2023-03-31T02:09:28;101393.31;;;15.50;64.52
51460;BME280;37534;39.772;2.718;2023-03-31T02:11:56;101395.00;;;15.51;65.46
51460;BME280;37534;39.772;2.718;2023-03-31T02:14:25;101402.66;;;15.30;66.41
51460;BME280;37534;39.772;2.718;2023-03-31T02:16:57;101392.91;;;15.37;66.35
51460;BME280;37534;39.772;2.718;2023-03-31T02:19:26;101390.03;;;15.19;67.26
51460;BME280;37534;39.772;2.718;2023-03-31T02:21:54;101386.19;;;15.05;68.81
51460;BME280;37534;39.772;2.718;2023-03-31T02:24:22;101374.22;;;15.00;67.46
51460;BME280;37534;39.772;2.718;2023-03-31T02:27:01;101365.28;;;14.82;69.44
51460;BME280;37534;39.772;2.718;2023-03-31T02:29:29;101364.22;;;14.88;68.45
51460;BME280;37534;39.772;2.718;2023-03-31T02:34:38;101379.91;;;14.85;68.34
51460;BME280;37534;39.772;2.718;2023-03-31T02:37:04;101378.19;;;14.86;69.51
51460;BME280;37534;39.772;2.718;2023-03-31T02:39:34;101374.16;;;14.77;68.98
51460;BME280;37534;39.772;2.718;2023-03-31T02:42:02;101365.56;;;14.75;70.87
51460;BME280;37534;39.772;2.718;2023-03-31T02:44:35;101363.16;;;14.69;72.53
51460;BME280;37534;39.772;2.718;2023-03-31T02:47:12;101367.59;;;14.65;72.77
51460;BME280;37534;39.772;2.718;2023-03-31T02:49:41;101353.34;;;14.77;66.02
51460;BME280;37534;39.772;2.718;2023-03-31T03:17:11;101334.16;;;14.54;74.09
51460;BME280;37534;39.772;2.718;2023-03-31T03:19:40;101342.84;;;14.53;73.36
51460;BME280;37534;39.772;2.718;2023-03-31T03:22:06;101327.19;;;14.28;76.47
51460;BME280;37534;39.772;2.718;2023-03-31T03:24:31;101334.59;;;14.40;76.71
51460;BME280;37534;39.772;2.718;2023-03-31T03:26:59;101335.31;;;14.17;77.61
51460;BME280;37534;39.772;2.718;2023-03-31T03:29:25;101335.50;;;14.11;78.40
51460;BME280;37534;39.772;2.718;2023-03-31T03:31:52;101336.53;;;14.07;77.14
51460;BME280;37534;39.772;2.718;2023-03-31T03:34:18;101341.16;;;14.24;78.00
51460;BME280;37534;39.772;2.718;2023-03-31T03:36:44;101343.22;;;14.14;77.87
51460;BME280;37534;39.772;2.718;2023-03-31T03:39:10;101359.75;;;14.10;78.90
51460;BME280;37534;39.772;2.718;2023-03-31T03:41:37;101352.78;;;14.12;76.47
51460;BME280;37534;39.772;2.718;2023-03-31T03:44:03;101371.56;;;14.20;76.90
51460;BME280;37534;39.772;2.718;2023-03-31T03:46:29;101355.69;;;14.30;73.70
51460;BME280;37534;39.772;2.718;2023-03-31T03:48:54;101391.94;;;14.33;75.28
51460;BME280;37534;39.772;2.718;2023-03-31T03:51:20;101381.22;;;14.43;74.60
51460;BME280;37534;39.772;2.718;2023-03-31T03:53:46;101391.00;;;14.35;76.16
51460;BME280;37534;39.772;2.718;2023-03-31T03:56:12;101397.44;;;14.23;76.98
51460;BME280;37534;39.772;2.718;2023-03-31T03:58:37;101385.66;;;14.40;72.81
51460;BME280;37534;39.772;2.718;2023-03-31T04:01:03;101417.59;;;14.72;70.76
51460;BME280;37534;39.772;2.718;2023-03-31T04:03:29;101399.41;;;14.72;67.91
51460;BME280;37534;39.772;2.718;2023-03-31T04:05:55;101410.94;;;14.90;68.37
51460;BME280;37534;39.772;2.718;2023-03-31T04:08:21;101410.56;;;14.75;69.93
51460;BME280;37534;39.772;2.718;2023-03-31T04:10:47;101437.56;;;14.70;70.49
51460;BME280;37534;39.772;2.718;2023-03-31T04:13:14;101435.16;;;14.63;70.87
51460;BME280;37534;39.772;2.718;2023-03-31T04:15:40;101435.88;;;14.69;70.95
51460;BME280;37534;39.772;2.718;2023-03-31T04:18:06;101437.31;;;14.77;71.43
51460;BME280;37534;39.772;2.718;2023-03-31T04:20:37;101434.59;;;14.82;69.27
51460;BME280;37534;39.772;2.718;2023-03-31T04:23:03;101433.78;;;14.80;70.33
51460;BME280;37534;39.772;2.718;2023-03-31T04:25:34;101417.31;;;14.51;73.17
51460;BME280;37534;39.772;2.718;2023-03-31T04:28:03;101445.72;;;14.59;73.75
51460;BME280;37534;39.772;2.718;2023-03-31T04:30:31;101443.28;;;14.51;72.05
51460;BME280;37534;39.772;2.718;2023-03-31T04:33:01;101432.28;;;14.73;69.69
51460;BME280;37534;39.772;2.718;2023-03-31T04:35:29;101424.63;;;14.68;70.95
51460;BME280;37534;39.772;2.718;2023-03-31T04:38:17;101431.03;;;14.85;69.30
51460;BME280;37534;39.772;2.718;2023-03-31T04:40:48;101424.69;;;14.93;69.17
51460;BME280;37534;39.772;2.718;2023-03-31T04:43:14;101416.53;;;15.04;67.10
51460;BME280;37534;39.772;2.718;2023-03-31T04:45:40;101428.56;;;15.33;64.38
51460;BME280;37534;39.772;2.718;2023-03-31T04:48:06;101425.34;;;15.50;62.93
51460;BME280;37534;39.772;2.718;2023-03-31T04:50:32;101423.22;;;15.36;65.38
51460;BME280;37534;39.772;2.718;2023-03-31T04:52:58;101420.06;;;15.28;68.26
51460;BME280;37534;39.772;2.718;2023-03-31T04:55:23;101406.38;;;15.23;69.43
51460;BME280;37534;39.772;2.718;2023-03-31T04:57:49;101418.91;;;15.12;69.31
51460;BME280;37534;39.772;2.718;2023-03-31T05:00:16;101427.59;;;15.11;68.86
51460;BME280;37534;39.772;2.718;2023-03-31T05:02:42;101444.97;;;15.09;69.48
51460;BME280;37534;39.772;2.718;2023-03-31T05:05:08;101449.56;;;15.27;66.76
51460;BME280;37534;39.772;2.718;2023-03-31T05:07:35;101441.69;;;15.29;67.26
51460;BME280;37534;39.772;2.718;2023-03-31T05:10:00;101431.28;;;15.04;71.38
51460;BME280;37534;39.772;2.718;2023-03-31T05:12:26;101453.88;;;15.01;72.13
51460;BME280;37534;39.772;2.718;2023-03-31T05:14:51;101434.16;;;14.96;72.62
51460;BME280;37534;39.772;2.718;2023-03-31T05:17:17;101444.69;;;14.91;73.46
51460;BME280;37534;39.772;2.718;2023-03-31T05:19:43;101440.53;;;14.86;73.31
51460;BME280;37534;39.772;2.718;2023-03-31T05:22:09;101445.28;;;14.99;71.57
51460;BME280;37534;39.772;2.718;2023-03-31T05:24:35;101454.63;;;15.05;71.30
51460;BME280;37534;39.772;2.718;2023-03-31T05:27:00;101459.81;;;15.05;72.91
51460;BME280;37534;39.772;2.718;2023-03-31T05:29:26;101453.66;;;15.08;72.04
51460;BME280;37534;39.772;2.718;2023-03-31T05:31:52;101457.28;;;15.04;71.94
51460;BME280;37534;39.772;2.718;2023-03-31T05:34:18;101465.41;;;14.93;73.60
51460;BME280;37534;39.772;2.718;2023-03-31T05:36:44;101471.16;;;15.02;72.59
51460;BME280;37534;39.772;2.718;2023-03-31T05:39:12;101464.56;;;14.92;73.80
51460;BME280;37534;39.772;2.718;2023-03-31T05:41:38;101460.44;;;14.85;75.27
51460;BME280;37534;39.772;2.718;2023-03-31T05:44:04;101459.81;;;14.78;76.69
51460;BME280;37534;39.772;2.718;2023-03-31T05:46:30;101442.91;;;14.65;77.61
51460;BME280;37534;39.772;2.718;2023-03-31T05:48:56;101457.81;;;14.58;79.13
51460;BME280;37534;39.772;2.718;2023-03-31T05:51:23;101450.19;;;14.52;79.85
51460;BME280;37534;39.772;2.718;2023-03-31T05:53:49;101439.72;;;14.55;80.55
51460;BME280;37534;39.772;2.718;2023-03-31T05:56:15;101443.22;;;14.54;79.91
51460;BME280;37534;39.772;2.718;2023-03-31T05:58:40;101446.19;;;14.42;81.54
51460;BME280;37534;39.772;2.718;2023-03-31T06:01:07;101449.81;;;14.36;82.81
51460;BME280;37534;39.772;2.718;2023-03-31T06:03:35;101448.00;;;14.38;82.76
51460;BME280;37534;39.772;2.718;2023-03-31T06:06:02;101445.28;;;14.43;83.41
51460;BME280;37534;39.772;2.718;2023-03-31T06:08:29;101438.22;;;14.48;84.16
51460;BME280;37534;39.772;2.718;2023-03-31T06:10:55;101430.88;;;14.33;84.77
51460;BME280;37534;39.772;2.718;2023-03-31T06:13:21;101420.53;;;14.31;84.15
51460;BME280;37534;39.772;2.718;2023-03-31T06:15:57;101415.69;;;14.20;86.01
51460;BME280;37534;39.772;2.718;2023-03-31T06:18:24;101410.69;;;14.14;86.94
51460;BME280;37534;39.772;2.718;2023-03-31T06:20:54;101405.63;;;14.10;88.04
51460;BME280;37534;39.772;2.718;2023-03-31T06:23:20;101418.94;;;14.27;88.44
51460;BME280;37534;39.772;2.718;2023-03-31T06:25:46;101411.16;;;14.27;89.10
51460;BME280;37534;39.772;2.718;2023-03-31T06:28:12;101417.44;;;14.20;90.80
51460;BME280;37534;39.772;2.718;2023-03-31T06:30:38;101410.91;;;14.35;88.65
51460;BME280;37534;39.772;2.718;2023-03-31T06:33:04;101419.41;;;14.40;88.71
51460;BME280;37534;39.772;2.718;2023-03-31T06:35:30;101412.44;;;14.42;89.50
51460;BME280;37534;39.772;2.718;2023-03-31T06:37:55;101421.56;;;14.55;88.72
51460;BME280;37534;39.772;2.718;2023-03-31T06:40:22;101417.03;;;14.89;87.41
51460;BME280;37534;39.772;2.718;2023-03-31T06:42:47;101414.91;;;15.01;87.37
51460;BME280;37534;39.772;2.718;2023-03-31T06:45:13;101420.81;;;15.07;87.73
51460;BME280;37534;39.772;2.718;2023-03-31T06:47:38;101428.38;;;15.38;86.31
51460;BME280;37534;39.772;2.718;2023-03-31T06:50:07;101437.72;;;15.94;85.19
51460;BME280;37534;39.772;2.718;2023-03-31T06:52:33;101441.72;;;16.48;82.59
51460;BME280;37534;39.772;2.718;2023-03-31T06:54:59;101461.13;;;17.07;77.46
51460;BME280;37534;39.772;2.718;2023-03-31T06:57:26;101460.72;;;17.58;73.96
51460;BME280;37534;39.772;2.718;2023-03-31T06:59:51;101457.03;;;18.22;70.10
51460;BME280;37534;39.772;2.718;2023-03-31T07:02:17;101471.56;;;18.47;69.46
51460;BME280;37534;39.772;2.718;2023-03-31T07:04:43;101465.63;;;18.43;69.89
51460;BME280;37534;39.772;2.718;2023-03-31T07:07:08;101468.59;;;18.35;70.41
51460;BME280;37534;39.772;2.718;2023-03-31T07:09:34;101475.06;;;18.46;69.80
51460;BME280;37534;39.772;2.718;2023-03-31T07:11:59;101456.31;;;18.37;69.73
51460;BME280;37534;39.772;2.718;2023-03-31T07:14:25;101463.09;;;18.22;68.45
51460;BME280;37534;39.772;2.718;2023-03-31T07:16:51;101456.38;;;18.36;67.27
51460;BME280;37534;39.772;2.718;2023-03-31T07:19:17;101443.69;;;18.28;70.60
51460;BME280;37534;39.772;2.718;2023-03-31T07:21:43;101456.19;;;18.21;72.64
51460;BME280;37534;39.772;2.718;2023-03-31T07:24:09;101461.34;;;18.23;73.26
51460;BME280;37534;39.772;2.718;2023-03-31T07:26:35;101459.63;;;18.22;73.58
51460;BME280;37534;39.772;2.718;2023-03-31T07:29:00;101463.75;;;18.64;71.36
51460;BME280;37534;39.772;2.718;2023-03-31T07:31:26;101455.53;;;18.91;68.46
51460;BME280;37534;39.772;2.718;2023-03-31T07:33:52;101462.31;;;19.12;67.84
51460;BME280;37534;39.772;2.718;2023-03-31T07:36:17;101455.44;;;19.45;68.76
51460;BME280;37534;39.772;2.718;2023-03-31T07:38:44;101480.22;;;20.06;67.09
51460;BME280;37534;39.772;2.718;2023-03-31T07:41:16;101482.31;;;20.95;64.12
51460;BME280;37534;39.772;2.718;2023-03-31T07:43:42;101487.72;;;22.24;58.33
51460;BME280;37534;39.772;2.718;2023-03-31T07:46:22;101473.06;;;22.76;52.48
51460;BME280;37534;39.772;2.718;2023-03-31T07:48:49;101487.44;;;23.89;50.15
51460;BME280;37534;39.772;2.718;2023-03-31T07:51:16;101485.56;;;24.65;42.86
51460;BME280;37534;39.772;2.718;2023-03-31T07:53:42;101495.47;;;25.68;41.79
51460;BME280;37534;39.772;2.718;2023-03-31T07:56:08;101493.63;;;26.47;40.10
51460;BME280;37534;39.772;2.718;2023-03-31T07:58:34;101491.34;;;27.49;38.86
51460;BME280;37534;39.772;2.718;2023-03-31T08:00:59;101477.34;;;28.59;37.48
51460;BME280;37534;39.772;2.718;2023-03-31T08:03:25;101494.09;;;28.99;34.36
51460;BME280;37534;39.772;2.718;2023-03-31T08:05:51;101486.13;;;30.03;34.35
51460;BME280;37534;39.772;2.718;2023-03-31T08:08:17;101479.50;;;30.71;32.76
51460;BME280;37534;39.772;2.718;2023-03-31T08:10:43;101481.88;;;31.18;31.41
51460;BME280;37534;39.772;2.718;2023-03-31T08:13:09;101472.25;;;31.94;29.90
51460;BME280;37534;39.772;2.718;2023-03-31T08:15:34;101479.53;;;32.18;28.87
51460;BME280;37534;39.772;2.718;2023-03-31T08:18:00;101475.38;;;32.24;28.06
51460;BME280;37534;39.772;2.718;2023-03-31T08:20:25;101475.78;;;32.87;27.34
51460;BME280;37534;39.772;2.718;2023-03-31T08:22:53;101470.38;;;33.11;26.55
51460;BME280;37534;39.772;2.718;2023-03-31T08:25:19;101486.56;;;33.90;26.78
51460;BME280;37534;39.772;2.718;2023-03-31T08:27:45;101508.22;;;34.90;24.94
51460;BME280;37534;39.772;2.718;2023-03-31T08:30:15;101507.38;;;35.42;24.78
51460;BME280;37534;39.772;2.718;2023-03-31T08:32:41;101495.44;;;35.74;25.02
51460;BME280;37534;39.772;2.718;2023-03-31T08:35:07;101513.38;;;35.59;24.39
51460;BME280;37534;39.772;2.718;2023-03-31T08:37:34;101522.63;;;35.41;24.42
51460;BME280;37534;39.772;2.718;2023-03-31T08:40:00;101535.59;;;36.56;23.95
51460;BME280;37534;39.772;2.718;2023-03-31T08:42:40;101544.06;;;36.96;22.07
51460;BME280;37534;39.772;2.718;2023-03-31T08:45:23;101525.03;;;37.19;21.73
51460;BME280;37534;39.772;2.718;2023-03-31T08:47:58;101548.00;;;37.56;21.60
51460;BME280;37534;39.772;2.718;2023-03-31T08:50:28;101553.63;;;37.26;21.99
51460;BME280;37534;39.772;2.718;2023-03-31T08:53:05;101557.91;;;37.49;21.24
51460;BME280;37534;39.772;2.718;2023-03-31T08:55:50;101558.16;;;37.61;21.23
51460;BME280;37534;39.772;2.718;2023-03-31T09:01:24;101548.56;;;36.88;21.13
51460;BME280;37534;39.772;2.718;2023-03-31T09:09:41;101563.88;;;38.28;20.28
51460;BME280;37534;39.772;2.718;2023-03-31T09:12:18;101575.19;;;37.33;20.31
51460;BME280;37534;39.772;2.718;2023-03-31T09:15:25;101569.63;;;37.35;20.49
51460;BME280;37534;39.772;2.718;2023-03-31T09:17:52;101550.66;;;37.91;20.06
51460;BME280;37534;39.772;2.718;2023-03-31T09:20:40;101557.16;;;38.78;19.70
51460;BME280;37534;39.772;2.718;2023-03-31T09:23:31;101552.19;;;39.09;19.49
51460;BME280;37534;39.772;2.718;2023-03-31T09:26:02;101546.56;;;38.84;19.10
51460;BME280;37534;39.772;2.718;2023-03-31T09:28:38;101547.28;;;38.24;20.01
51460;BME280;37534;39.772;2.718;2023-03-31T09:31:12;101535.34;;;39.00;19.15
51460;BME280;37534;39.772;2.718;2023-03-31T09:33:42;101520.16;;;39.39;19.21
51460;BME280;37534;39.772;2.718;2023-03-31T09:36:17;101503.91;;;39.46;18.88
51460;BME280;37534;39.772;2.718;2023-03-31T09:38:44;101501.97;;;38.61;18.42
51460;BME280;37534;39.772;2.718;2023-03-31T09:41:12;101499.06;;;38.76;17.96
51460;BME280;37534;39.772;2.718;2023-03-31T09:43:39;101489.53;;;38.73;18.48
51460;BME280;37534;39.772;2.718;2023-03-31T09:46:33;101501.31;;;38.99;17.71
51460;BME280;37534;39.772;2.718;2023-03-31T09:49:15;101504.63;;;39.80;17.48
51460;BME280;37534;39.772;2.718;2023-03-31T09:51:48;101498.63;;;40.23;17.29
51460;BME280;37534;39.772;2.718;2023-03-31T09:54:26;101504.31;;;40.40;17.16
51460;BME280;37534;39.772;2.718;2023-03-31T09:56:55;101505.78;;;40.67;16.86
51460;BME280;37534;39.772;2.718;2023-03-31T09:59:21;101500.28;;;40.49;16.49
51460;BME280;37534;39.772;2.718;2023-03-31T10:01:52;101486.19;;;39.77;17.10
51460;BME280;37534;39.772;2.718;2023-03-31T10:04:22;101494.81;;;39.99;17.58
51460;BME280;37534;39.772;2.718;2023-03-31T10:06:48;101502.19;;;39.78;16.91
51460;BME280;37534;39.772;2.718;2023-03-31T10:09:16;101489.28;;;39.22;17.85
51460;BME280;37534;39.772;2.718;2023-03-31T10:11:58;101484.94;;;38.54;18.02
51460;BME280;37534;39.772;2.718;2023-03-31T10:14:48;101476.06;;;37.78;17.89
51460;BME280;37534;39.772;2.718;2023-03-31T10:17:16;101480.44;;;37.44;17.65
51460;BME280;37534;39.772;2.718;2023-03-31T10:20:03;101489.72;;;37.77;17.97
51460;BME280;37534;39.772;2.718;2023-03-31T10:22:32;101475.16;;;37.64;17.67
51460;BME280;37534;39.772;2.718;2023-03-31T10:27:39;101485.97;;;38.33;17.51
51460;BME280;37534;39.772;2.718;2023-03-31T10:30:10;101480.59;;;38.79;17.44
51460;BME280;37534;39.772;2.718;2023-03-31T10:32:43;101474.88;;;39.41;16.93
51460;BME280;37534;39.772;2.718;2023-03-31T10:35:21;101486.56;;;38.48;17.69
51460;BME280;37534;39.772;2.718;2023-03-31T10:37:50;101468.16;;;39.64;17.31
51460;BME280;37534;39.772;2.718;2023-03-31T10:40:22;101486.88;;;40.04;17.08
51460;BME280;37534;39.772;2.718;2023-03-31T10:43:39;101478.28;;;40.71;16.59
51460;BME280;37534;39.772;2.718;2023-03-31T10:45:50;101486.03;;;40.10;15.85
51460;BME280;37534;39.772;2.718;2023-03-31T10:48:31;101486.59;;;38.88;16.92
51460;BME280;37534;39.772;2.718;2023-03-31T10:50:59;101467.09;;;37.64;18.29
51460;BME280;37534;39.772;2.718;2023-03-31T10:53:25;101476.44;;;37.69;17.84
51460;BME280;37534;39.772;2.718;2023-03-31T11:01:56;101460.72;;;39.52;17.53
51460;BME280;37534;39.772;2.718;2023-03-31T11:04:28;101456.75;;;38.63;17.96
51460;BME280;37534;39.772;2.718;2023-03-31T11:25:47;101440.16;;;38.66;17.61
51460;BME280;37534;39.772;2.718;2023-03-31T11:31:29;101434.91;;;38.98;17.55
51460;BME280;37534;39.772;2.718;2023-03-31T11:34:09;101433.06;;;38.92;17.78
51460;BME280;37534;39.772;2.718;2023-03-31T11:42:06;101432.03;;;40.28;17.03
51460;BME280;37534;39.772;2.718;2023-03-31T11:44:43;101442.88;;;40.97;16.77
51460;BME280;37534;39.772;2.718;2023-03-31T11:47:17;101422.50;;;41.32;16.01
51460;BME280;37534;39.772;2.718;2023-03-31T11:49:49;101435.97;;;41.01;16.55
51460;BME280;37534;39.772;2.718;2023-03-31T11:52:18;101439.34;;;40.53;16.80
51460;BME280;37534;39.772;2.718;2023-03-31T11:57:56;101417.81;;;37.64;18.45
51460;BME280;37534;39.772;2.718;2023-03-31T12:00:27;101423.78;;;36.33;19.27
51460;BME280;37534;39.772;2.718;2023-03-31T12:03:12;101412.88;;;35.76;19.90
51460;BME280;37534;39.772;2.718;2023-03-31T12:05:48;101411.22;;;35.46;20.01
51460;BME280;37534;39.772;2.718;2023-03-31T12:08:30;101413.84;;;35.90;19.62
51460;BME280;37534;39.772;2.718;2023-03-31T12:11:04;101416.69;;;35.89;20.31
51460;BME280;37534;39.772;2.718;2023-03-31T12:13:52;101425.56;;;37.39;19.10
51460;BME280;37534;39.772;2.718;2023-03-31T12:16:24;101424.75;;;37.93;18.52
51460;BME280;37534;39.772;2.718;2023-03-31T12:18:58;101426.63;;;38.93;17.89
51460;BME280;37534;39.772;2.718;2023-03-31T12:21:27;101418.44;;;39.33;17.41
51460;BME280;37534;39.772;2.718;2023-03-31T12:23:53;101418.25;;;39.73;17.85
51460;BME280;37534;39.772;2.718;2023-03-31T12:29:05;101414.31;;;40.33;17.26
51460;BME280;37534;39.772;2.718;2023-03-31T12:31:38;101406.72;;;39.52;17.69
51460;BME280;37534;39.772;2.718;2023-03-31T12:34:11;101409.81;;;38.91;17.91
51460;BME280;37534;39.772;2.718;2023-03-31T12:37:04;101410.03;;;38.89;18.10
51460;BME280;37534;39.772;2.718;2023-03-31T12:53:31;101365.00;;;37.70;19.02
51460;BME280;37534;39.772;2.718;2023-03-31T12:56:01;101354.97;;;37.43;19.26
51460;BME280;37534;39.772;2.718;2023-03-31T13:01:21;101353.88;;;35.47;20.82
51460;BME280;37534;39.772;2.718;2023-03-31T13:03:50;101359.19;;;35.76;19.87
51460;BME280;37534;39.772;2.718;2023-03-31T13:09:04;101355.47;;;36.21;20.12
51460;BME280;37534;39.772;2.718;2023-03-31T13:16:27;101345.63;;;36.28;20.22
51460;BME280;37534;39.772;2.718;2023-03-31T13:18:54;101350.50;;;35.96;20.58
51460;BME280;37534;39.772;2.718;2023-03-31T13:21:21;101339.81;;;36.03;20.66
51460;BME280;37534;39.772;2.718;2023-03-31T13:23:47;101341.19;;;35.55;20.69
51460;BME280;37534;39.772;2.718;2023-03-31T13:34:31;101336.31;;;32.83;23.35
51460;BME280;37534;39.772;2.718;2023-03-31T13:48:47;101300.16;;;30.88;25.86
51460;BME280;37534;39.772;2.718;2023-03-31T13:51:27;101299.03;;;30.65;26.13
51460;BME280;37534;39.772;2.718;2023-03-31T13:56:43;101276.69;;;30.58;27.04
51460;BME280;37534;39.772;2.718;2023-03-31T14:10:36;101223.44;;;31.51;25.19
51460;BME280;37534;39.772;2.718;2023-03-31T14:13:11;101214.94;;;31.64;24.72
51460;BME280;37534;39.772;2.718;2023-03-31T14:29:22;101209.69;;;30.79;24.80
51460;BME280;37534;39.772;2.718;2023-03-31T14:37:03;101199.47;;;30.58;25.45
51460;BME280;37534;39.772;2.718;2023-03-31T14:39:34;101196.66;;;30.33;25.67
51460;BME280;37534;39.772;2.718;2023-03-31T14:42:09;101192.22;;;30.16;26.08
51460;BME280;37534;39.772;2.718;2023-03-31T14:44:36;101182.75;;;29.95;26.75
51460;BME280;37534;39.772;2.718;2023-03-31T14:47:02;101172.59;;;29.72;27.53
51460;BME280;37534;39.772;2.718;2023-03-31T14:49:38;101174.72;;;29.51;28.94
51460;BME280;37534;39.772;2.718;2023-03-31T14:52:18;101156.59;;;29.00;30.51
51460;BME280;37534;39.772;2.718;2023-03-31T14:54:45;101165.34;;;29.11;30.60
51460;BME280;37534;39.772;2.718;2023-03-31T14:57:18;101171.31;;;29.41;30.12
51460;BME280;37534;39.772;2.718;2023-03-31T14:59:47;101146.47;;;29.68;30.17
51460;BME280;37534;39.772;2.718;2023-03-31T15:02:16;101139.78;;;29.82;29.13
51460;BME280;37534;39.772;2.718;2023-03-31T15:04:46;101155.44;;;30.37;28.48
51460;BME280;37534;39.772;2.718;2023-03-31T15:07:14;101141.28;;;30.87;27.42
51460;BME280;37534;39.772;2.718;2023-03-31T15:09:46;101144.25;;;31.43;27.03
51460;BME280;37534;39.772;2.718;2023-03-31T15:12:14;101145.72;;;32.03;26.51
51460;BME280;37534;39.772;2.718;2023-03-31T15:14:49;101144.91;;;32.59;24.97
51460;BME280;37534;39.772;2.718;2023-03-31T15:17:26;101149.56;;;32.88;24.98
51460;BME280;37534;39.772;2.718;2023-03-31T15:19:54;101148.22;;;32.61;25.00
51460;BME280;37534;39.772;2.718;2023-03-31T15:22:22;101146.03;;;32.00;26.31
51460;BME280;37534;39.772;2.718;2023-03-31T15:24:48;101134.03;;;31.14;27.27
51460;BME280;37534;39.772;2.718;2023-03-31T15:27:35;101152.00;;;30.27;28.76
51460;BME280;37534;39.772;2.718;2023-03-31T15:30:05;101163.34;;;29.41;30.77
51460;BME280;37534;39.772;2.718;2023-03-31T15:32:34;101154.84;;;29.19;31.38
51460;BME280;37534;39.772;2.718;2023-03-31T15:35:01;101155.44;;;29.31;31.90
51460;BME280;37534;39.772;2.718;2023-03-31T15:37:41;101149.44;;;29.29;31.65
51460;BME280;37534;39.772;2.718;2023-03-31T15:40:22;101134.13;;;29.41;31.42
51460;BME280;37534;39.772;2.718;2023-03-31T15:42:55;101144.78;;;29.67;32.08
51460;BME280;37534;39.772;2.718;2023-03-31T15:45:50;101144.03;;;29.74;31.67
51460;BME280;37534;39.772;2.718;2023-03-31T15:48:22;101141.63;;;29.81;31.31
51460;BME280;37534;39.772;2.718;2023-03-31T15:50:48;101148.38;;;29.75;30.98
51460;BME280;37534;39.772;2.718;2023-03-31T15:53:28;101149.22;;;29.58;30.70
51460;BME280;37534;39.772;2.718;2023-03-31T15:55:56;101148.50;;;29.56;30.98
51460;BME280;37534;39.772;2.718;2023-03-31T15:58:47;101142.91;;;29.23;31.10
51460;BME280;37534;39.772;2.718;2023-03-31T16:01:17;101159.66;;;29.06;31.02
51460;BME280;37534;39.772;2.718;2023-03-31T16:03:43;101172.00;;;28.69;31.51